sensor_id;sensor_type;location;lat;lon;timestamp;temperature;humidity
19892;DHT22;10108;50.142;8.724;2023-08-24T00:00:59;20.60;99.90
19892;DHT22;10108;50.142;8.724;2023-08-24T00:03:25;20.60;99.90
19892;DHT22;10108;50.142;8.724;2023-08-24T00:05:51;20.60;99.90
19892;DHT22;10108;50.142;8.724;2023-08-24T00:08:17;20.60;99.90
19892;DHT22;10108;50.142;8.724;2023-08-24T00:10:44;20.60;99.90
19892;DHT22;10108;50.142;8.724;2023-08-24T00:13:13;20.60;99.90
19892;DHT22;10108;50.142;8.724;2023-08-24T00:15:40;20.60;99.90
19892;DHT22;10108;50.142;8.724;2023-08-24T00:18:06;20.60;99.90
19892;DHT22;10108;50.142;8.724;2023-08-24T00:20:33;20.60;99.90
19892;DHT22;10108;50.142;8.724;2023-08-24T00:23:00;20.60;99.90
19892;DHT22;10108;50.142;8.724;2023-08-24T00:25:26;20.60;99.90
19892;DHT22;10108;50.142;8.724;2023-08-24T00:27:53;20.60;99.90
19892;DHT22;10108;50.142;8.724;2023-08-24T00:30:20;20.60;99.90
19892;DHT22;10108;50.142;8.724;2023-08-24T00:32:46;20.60;99.90
19892;DHT22;10108;50.142;8.724;2023-08-24T00:35:12;20.50;99.90
19892;DHT22;10108;50.142;8.724;2023-08-24T00:37:38;20.50;99.90
19892;DHT22;10108;50.142;8.724;2023-08-24T00:40:06;20.50;99.90
19892;DHT22;10108;50.142;8.724;2023-08-24T00:42:40;20.50;99.90
19892;DHT22;10108;50.142;8.724;2023-08-24T00:45:08;20.50;99.90
19892;DHT22;10108;50.142;8.724;2023-08-24T00:47:36;20.50;99.90
19892;DHT22;10108;50.142;8.724;2023-08-24T00:50:02;20.50;99.90
19892;DHT22;10108;50.142;8.724;2023-08-24T00:52:30;20.50;99.90
19892;DHT22;10108;50.142;8.724;2023-08-24T00:55:01;20.50;99.90
19892;DHT22;10108;50.142;8.724;2023-08-24T00:57:28;20.40;99.90
19892;DHT22;10108;50.142;8.724;2023-08-24T00:59:55;20.40;99.90
19892;DHT22;10108;50.142;8.724;2023-08-24T01:02:22;20.40;99.90
19892;DHT22;10108;50.142;8.724;2023-08-24T01:04:48;20.40;99.90
19892;DHT22;10108;50.142;8.724;2023-08-24T01:07:15;20.40;99.90
19892;DHT22;10108;50.142;8.724;2023-08-24T01:09:42;20.40;99.90
19892;DHT22;10108;50.142;8.724;2023-08-24T01:17:32;20.40;99.90
19892;DHT22;10108;50.142;8.724;2023-08-24T01:20:02;20.30;99.90
19892;DHT22;10108;50.142;8.724;2023-08-24T01:22:46;20.30;99.90
19892;DHT22;10108;50.142;8.724;2023-08-24T01:28:09;20.30;99.90
19892;DHT22;10108;50.142;8.724;2023-08-24T01:30:37;20.30;99.90
19892;DHT22;10108;50.142;8.724;2023-08-24T01:33:05;20.30;99.90
19892;DHT22;10108;50.142;8.724;2023-08-24T01:35:31;20.30;99.90
19892;DHT22;10108;50.142;8.724;2023-08-24T01:37:59;20.20;99.90
19892;DHT22;10108;50.142;8.724;2023-08-24T01:41:09;20.20;99.90
19892;DHT22;10108;50.142;8.724;2023-08-24T01:43:36;20.20;99.90
19892;DHT22;10108;50.142;8.724;2023-08-24T01:46:04;20.20;99.90
19892;DHT22;10108;50.142;8.724;2023-08-24T01:48:31;20.20;99.90
19892;DHT22;10108;50.142;8.724;2023-08-24T01:51:00;20.30;99.90
19892;DHT22;10108;50.142;8.724;2023-08-24T01:53:30;20.30;99.90
19892;DHT22;10108;50.142;8.724;2023-08-24T01:55:56;20.30;99.90
19892;DHT22;10108;50.142;8.724;2023-08-24T01:58:23;20.30;99.90
19892;DHT22;10108;50.142;8.724;2023-08-24T02:00:49;20.30;99.90
19892;DHT22;10108;50.142;8.724;2023-08-24T02:03:15;20.20;99.90
19892;DHT22;10108;50.142;8.724;2023-08-24T02:05:41;20.20;99.90
19892;DHT22;10108;50.142;8.724;2023-08-24T02:08:07;20.20;99.90
19892;DHT22;10108;50.142;8.724;2023-08-24T02:10:34;20.20;99.90
19892;DHT22;10108;50.142;8.724;2023-08-24T02:13:00;20.20;99.90
19892;DHT22;10108;50.142;8.724;2023-08-24T02:15:26;20.20;99.90
19892;DHT22;10108;50.142;8.724;2023-08-24T02:17:52;20.20;99.90
19892;DHT22;10108;50.142;8.724;2023-08-24T02:20:18;20.20;99.90
19892;DHT22;10108;50.142;8.724;2023-08-24T02:22:44;20.20;99.90
19892;DHT22;10108;50.142;8.724;2023-08-24T02:25:10;20.10;99.90
19892;DHT22;10108;50.142;8.724;2023-08-24T02:27:37;20.10;99.90
19892;DHT22;10108;50.142;8.724;2023-08-24T02:30:05;20.10;99.90
19892;DHT22;10108;50.142;8.724;2023-08-24T02:32:31;20.10;99.90
19892;DHT22;10108;50.142;8.724;2023-08-24T02:34:57;20.10;99.90
19892;DHT22;10108;50.142;8.724;2023-08-24T02:37:23;20.10;99.90
19892;DHT22;10108;50.142;8.724;2023-08-24T02:39:49;20.10;99.90
19892;DHT22;10108;50.142;8.724;2023-08-24T02:42:16;20.20;99.90
19892;DHT22;10108;50.142;8.724;2023-08-24T02:44:43;20.20;99.90
19892;DHT22;10108;50.142;8.724;2023-08-24T02:47:09;20.20;99.90
19892;DHT22;10108;50.142;8.724;2023-08-24T02:49:35;20.20;99.90
19892;DHT22;10108;50.142;8.724;2023-08-24T02:52:03;20.20;99.90
19892;DHT22;10108;50.142;8.724;2023-08-24T02:54:29;20.20;99.90
19892;DHT22;10108;50.142;8.724;2023-08-24T02:56:55;20.20;99.90
19892;DHT22;10108;50.142;8.724;2023-08-24T02:59:21;20.20;99.90
19892;DHT22;10108;50.142;8.724;2023-08-24T03:01:48;20.20;99.90
19892;DHT22;10108;50.142;8.724;2023-08-24T03:04:14;20.20;99.90
19892;DHT22;10108;50.142;8.724;2023-08-24T03:06:42;20.20;99.90
19892;DHT22;10108;50.142;8.724;2023-08-24T03:09:09;20.30;99.90
19892;DHT22;10108;50.142;8.724;2023-08-24T03:11:35;20.30;99.90
19892;DHT22;10108;50.142;8.724;2023-08-24T03:14:01;20.30;99.90
19892;DHT22;10108;50.142;8.724;2023-08-24T03:16:27;20.30;99.90
19892;DHT22;10108;50.142;8.724;2023-08-24T03:18:53;20.30;99.90
19892;DHT22;10108;50.142;8.724;2023-08-24T03:21:19;20.30;99.90
19892;DHT22;10108;50.142;8.724;2023-08-24T03:23:45;20.30;99.90
19892;DHT22;10108;50.142;8.724;2023-08-24T03:26:11;20.30;99.90
19892;DHT22;10108;50.142;8.724;2023-08-24T03:28:37;20.30;99.90
19892;DHT22;10108;50.142;8.724;2023-08-24T03:31:06;20.30;99.90
19892;DHT22;10108;50.142;8.724;2023-08-24T03:33:33;20.20;99.90
19892;DHT22;10108;50.142;8.724;2023-08-24T03:36:01;20.30;99.90
19892;DHT22;10108;50.142;8.724;2023-08-24T03:38:29;20.20;99.90
19892;DHT22;10108;50.142;8.724;2023-08-24T03:41:00;20.20;99.90
19892;DHT22;10108;50.142;8.724;2023-08-24T03:43:26;20.20;99.90
19892;DHT22;10108;50.142;8.724;2023-08-24T03:45:53;20.20;99.90
19892;DHT22;10108;50.142;8.724;2023-08-24T03:48:19;20.20;99.90
19892;DHT22;10108;50.142;8.724;2023-08-24T03:50:46;20.10;99.90
19892;DHT22;10108;50.142;8.724;2023-08-24T03:53:13;20.10;99.90
19892;DHT22;10108;50.142;8.724;2023-08-24T03:55:39;20.10;99.90
19892;DHT22;10108;50.142;8.724;2023-08-24T03:58:05;20.10;99.90
19892;DHT22;10108;50.142;8.724;2023-08-24T04:00:31;20.10;99.90
19892;DHT22;10108;50.142;8.724;2023-08-24T04:02:59;20.10;99.90
19892;DHT22;10108;50.142;8.724;2023-08-24T04:05:26;20.10;99.90
19892;DHT22;10108;50.142;8.724;2023-08-24T04:07:52;20.10;99.90
19892;DHT22;10108;50.142;8.724;2023-08-24T04:10:18;20.10;99.90
19892;DHT22;10108;50.142;8.724;2023-08-24T04:12:45;20.20;99.90
19892;DHT22;10108;50.142;8.724;2023-08-24T04:15:11;20.10;99.90
19892;DHT22;10108;50.142;8.724;2023-08-24T04:17:37;20.10;99.90
19892;DHT22;10108;50.142;8.724;2023-08-24T04:20:03;20.10;99.90
19892;DHT22;10108;50.142;8.724;2023-08-24T04:22:32;20.10;99.90
19892;DHT22;10108;50.142;8.724;2023-08-24T04:24:58;20.10;99.90
19892;DHT22;10108;50.142;8.724;2023-08-24T04:27:24;20.10;99.90
19892;DHT22;10108;50.142;8.724;2023-08-24T04:29:50;20.10;99.90
19892;DHT22;10108;50.142;8.724;2023-08-24T04:32:17;20.20;99.90
19892;DHT22;10108;50.142;8.724;2023-08-24T04:34:43;20.20;99.90
19892;DHT22;10108;50.142;8.724;2023-08-24T04:37:09;20.20;99.90
19892;DHT22;10108;50.142;8.724;2023-08-24T04:39:35;20.20;99.90
19892;DHT22;10108;50.142;8.724;2023-08-24T04:42:01;20.10;99.90
19892;DHT22;10108;50.142;8.724;2023-08-24T04:44:28;20.00;99.90
19892;DHT22;10108;50.142;8.724;2023-08-24T04:46:54;19.90;99.90
19892;DHT22;10108;50.142;8.724;2023-08-24T04:49:20;19.70;99.90
19892;DHT22;10108;50.142;8.724;2023-08-24T04:51:46;19.60;99.90
19892;DHT22;10108;50.142;8.724;2023-08-24T04:54:12;19.50;99.90
19892;DHT22;10108;50.142;8.724;2023-08-24T04:56:38;19.40;99.90
19892;DHT22;10108;50.142;8.724;2023-08-24T04:59:05;19.40;99.90
19892;DHT22;10108;50.142;8.724;2023-08-24T05:01:31;19.40;99.90
19892;DHT22;10108;50.142;8.724;2023-08-24T05:04:00;19.40;99.90
19892;DHT22;10108;50.142;8.724;2023-08-24T05:06:26;19.40;99.90
19892;DHT22;10108;50.142;8.724;2023-08-24T05:08:52;19.40;99.90
19892;DHT22;10108;50.142;8.724;2023-08-24T05:11:19;19.40;99.90
19892;DHT22;10108;50.142;8.724;2023-08-24T05:13:46;19.50;99.90
19892;DHT22;10108;50.142;8.724;2023-08-24T05:16:12;19.50;99.90
19892;DHT22;10108;50.142;8.724;2023-08-24T05:18:39;19.50;99.90
19892;DHT22;10108;50.142;8.724;2023-08-24T05:21:06;19.60;99.90
19892;DHT22;10108;50.142;8.724;2023-08-24T05:23:33;19.60;99.90
19892;DHT22;10108;50.142;8.724;2023-08-24T05:26:00;19.70;99.90
19892;DHT22;10108;50.142;8.724;2023-08-24T05:28:28;19.70;99.90
19892;DHT22;10108;50.142;8.724;2023-08-24T05:30:54;19.70;99.90
19892;DHT22;10108;50.142;8.724;2023-08-24T05:33:22;19.70;99.90
19892;DHT22;10108;50.142;8.724;2023-08-24T05:35:49;19.80;99.90
19892;DHT22;10108;50.142;8.724;2023-08-24T05:38:16;19.80;99.90
19892;DHT22;10108;50.142;8.724;2023-08-24T05:40:42;19.90;99.90
19892;DHT22;10108;50.142;8.724;2023-08-24T05:43:09;19.90;99.90
19892;DHT22;10108;50.142;8.724;2023-08-24T05:45:36;20.00;99.90
19892;DHT22;10108;50.142;8.724;2023-08-24T05:48:02;20.10;99.90
19892;DHT22;10108;50.142;8.724;2023-08-24T05:50:29;20.20;99.90
19892;DHT22;10108;50.142;8.724;2023-08-24T05:52:55;20.20;99.90
19892;DHT22;10108;50.142;8.724;2023-08-24T05:55:21;20.30;99.90
19892;DHT22;10108;50.142;8.724;2023-08-24T05:57:47;20.30;99.90
19892;DHT22;10108;50.142;8.724;2023-08-24T06:00:13;20.40;99.90
19892;DHT22;10108;50.142;8.724;2023-08-24T06:02:42;20.50;99.90
19892;DHT22;10108;50.142;8.724;2023-08-24T06:05:08;20.50;99.90
19892;DHT22;10108;50.142;8.724;2023-08-24T06:07:35;20.60;99.90
19892;DHT22;10108;50.142;8.724;2023-08-24T06:10:02;20.60;99.90
19892;DHT22;10108;50.142;8.724;2023-08-24T06:12:28;20.70;99.90
19892;DHT22;10108;50.142;8.724;2023-08-24T06:14:54;20.70;99.90
19892;DHT22;10108;50.142;8.724;2023-08-24T06:17:20;20.70;99.90
19892;DHT22;10108;50.142;8.724;2023-08-24T06:19:46;20.80;99.90
19892;DHT22;10108;50.142;8.724;2023-08-24T06:22:12;20.80;99.90
19892;DHT22;10108;50.142;8.724;2023-08-24T06:24:39;20.80;99.90
19892;DHT22;10108;50.142;8.724;2023-08-24T06:27:05;20.80;99.90
19892;DHT22;10108;50.142;8.724;2023-08-24T06:29:31;20.80;99.90
19892;DHT22;10108;50.142;8.724;2023-08-24T06:31:57;20.80;99.90
19892;DHT22;10108;50.142;8.724;2023-08-24T06:34:23;20.80;99.90
19892;DHT22;10108;50.142;8.724;2023-08-24T06:36:50;20.80;99.90
19892;DHT22;10108;50.142;8.724;2023-08-24T06:39:16;20.80;99.90
19892;DHT22;10108;50.142;8.724;2023-08-24T06:41:43;20.70;99.90
19892;DHT22;10108;50.142;8.724;2023-08-24T06:44:09;20.70;99.90
19892;DHT22;10108;50.142;8.724;2023-08-24T06:46:35;20.70;99.90
19892;DHT22;10108;50.142;8.724;2023-08-24T06:49:01;20.60;99.90
19892;DHT22;10108;50.142;8.724;2023-08-24T06:51:27;20.60;99.90
19892;DHT22;10108;50.142;8.724;2023-08-24T06:53:54;20.50;99.90
19892;DHT22;10108;50.142;8.724;2023-08-24T06:56:20;20.40;99.90
19892;DHT22;10108;50.142;8.724;2023-08-24T06:58:48;20.40;99.90
19892;DHT22;10108;50.142;8.724;2023-08-24T07:01:14;20.30;99.90
19892;DHT22;10108;50.142;8.724;2023-08-24T07:03:40;20.20;99.90
19892;DHT22;10108;50.142;8.724;2023-08-24T07:06:06;20.10;99.90
19892;DHT22;10108;50.142;8.724;2023-08-24T07:08:38;20.00;99.90
19892;DHT22;10108;50.142;8.724;2023-08-24T07:11:04;19.90;99.90
19892;DHT22;10108;50.142;8.724;2023-08-24T07:13:30;19.80;99.90
19892;DHT22;10108;50.142;8.724;2023-08-24T07:15:56;19.70;99.90
19892;DHT22;10108;50.142;8.724;2023-08-24T07:18:22;19.60;99.90
19892;DHT22;10108;50.142;8.724;2023-08-24T07:20:48;19.60;99.90
19892;DHT22;10108;50.142;8.724;2023-08-24T07:23:14;19.60;99.90
19892;DHT22;10108;50.142;8.724;2023-08-24T07:25:41;19.70;99.90
19892;DHT22;10108;50.142;8.724;2023-08-24T07:28:07;19.70;99.90
19892;DHT22;10108;50.142;8.724;2023-08-24T07:30:35;19.80;99.90
19892;DHT22;10108;50.142;8.724;2023-08-24T07:33:02;19.80;99.90
19892;DHT22;10108;50.142;8.724;2023-08-24T07:35:31;19.90;99.90
19892;DHT22;10108;50.142;8.724;2023-08-24T07:37:57;19.90;99.90
19892;DHT22;10108;50.142;8.724;2023-08-24T07:40:24;19.90;99.90
19892;DHT22;10108;50.142;8.724;2023-08-24T07:42:53;19.90;99.90
19892;DHT22;10108;50.142;8.724;2023-08-24T07:45:21;19.90;99.90
19892;DHT22;10108;50.142;8.724;2023-08-24T07:47:47;19.80;99.90
19892;DHT22;10108;50.142;8.724;2023-08-24T07:50:13;19.80;99.90
19892;DHT22;10108;50.142;8.724;2023-08-24T07:52:40;19.80;99.90
19892;DHT22;10108;50.142;8.724;2023-08-24T07:55:07;19.70;99.90
19892;DHT22;10108;50.142;8.724;2023-08-24T07:57:34;19.70;99.90
19892;DHT22;10108;50.142;8.724;2023-08-24T08:00:00;19.70;99.90
19892;DHT22;10108;50.142;8.724;2023-08-24T08:02:26;19.80;99.90
19892;DHT22;10108;50.142;8.724;2023-08-24T08:04:56;19.80;99.90
19892;DHT22;10108;50.142;8.724;2023-08-24T08:07:28;19.80;99.90
19892;DHT22;10108;50.142;8.724;2023-08-24T08:09:54;19.90;99.90
19892;DHT22;10108;50.142;8.724;2023-08-24T08:12:22;20.00;99.90
19892;DHT22;10108;50.142;8.724;2023-08-24T08:14:48;19.90;99.90
19892;DHT22;10108;50.142;8.724;2023-08-24T08:17:14;20.00;99.90
19892;DHT22;10108;50.142;8.724;2023-08-24T08:19:40;19.90;99.90
19892;DHT22;10108;50.142;8.724;2023-08-24T08:22:07;20.00;99.90
19892;DHT22;10108;50.142;8.724;2023-08-24T08:24:33;19.90;99.90
19892;DHT22;10108;50.142;8.724;2023-08-24T08:26:59;19.90;99.90
19892;DHT22;10108;50.142;8.724;2023-08-24T08:29:25;19.90;99.90
19892;DHT22;10108;50.142;8.724;2023-08-24T08:31:52;19.80;99.90
19892;DHT22;10108;50.142;8.724;2023-08-24T08:34:18;19.90;99.90
19892;DHT22;10108;50.142;8.724;2023-08-24T08:36:44;19.90;99.90
19892;DHT22;10108;50.142;8.724;2023-08-24T08:39:10;20.00;99.90
19892;DHT22;10108;50.142;8.724;2023-08-24T08:41:43;20.00;99.90
19892;DHT22;10108;50.142;8.724;2023-08-24T08:44:13;20.10;99.90
19892;DHT22;10108;50.142;8.724;2023-08-24T08:46:41;20.20;99.90
19892;DHT22;10108;50.142;8.724;2023-08-24T08:49:08;20.20;99.90
19892;DHT22;10108;50.142;8.724;2023-08-24T08:51:36;20.30;99.90
19892;DHT22;10108;50.142;8.724;2023-08-24T08:54:03;20.40;99.90
19892;DHT22;10108;50.142;8.724;2023-08-24T08:56:34;20.40;99.90
19892;DHT22;10108;50.142;8.724;2023-08-24T08:59:01;20.50;99.90
19892;DHT22;10108;50.142;8.724;2023-08-24T09:01:28;20.50;99.90
19892;DHT22;10108;50.142;8.724;2023-08-24T09:03:54;20.60;99.90
19892;DHT22;10108;50.142;8.724;2023-08-24T09:06:20;20.70;99.90
19892;DHT22;10108;50.142;8.724;2023-08-24T09:08:48;20.70;99.90
19892;DHT22;10108;50.142;8.724;2023-08-24T09:11:15;20.70;99.90
19892;DHT22;10108;50.142;8.724;2023-08-24T09:13:43;20.80;99.90
19892;DHT22;10108;50.142;8.724;2023-08-24T09:16:09;20.80;99.90
19892;DHT22;10108;50.142;8.724;2023-08-24T09:18:43;20.80;99.90
19892;DHT22;10108;50.142;8.724;2023-08-24T09:21:11;20.80;99.90
19892;DHT22;10108;50.142;8.724;2023-08-24T09:23:45;20.90;99.90
19892;DHT22;10108;50.142;8.724;2023-08-24T09:26:11;20.90;99.90
19892;DHT22;10108;50.142;8.724;2023-08-24T09:28:38;20.90;99.90
19892;DHT22;10108;50.142;8.724;2023-08-24T09:31:07;21.00;99.90
19892;DHT22;10108;50.142;8.724;2023-08-24T09:33:35;21.00;99.90
19892;DHT22;10108;50.142;8.724;2023-08-24T09:36:06;21.10;99.90
19892;DHT22;10108;50.142;8.724;2023-08-24T09:38:32;21.10;99.90
19892;DHT22;10108;50.142;8.724;2023-08-24T09:40:58;21.20;99.90
19892;DHT22;10108;50.142;8.724;2023-08-24T09:43:24;21.20;99.90
19892;DHT22;10108;50.142;8.724;2023-08-24T09:45:52;21.20;99.90
19892;DHT22;10108;50.142;8.724;2023-08-24T09:48:19;21.30;99.90
19892;DHT22;10108;50.142;8.724;2023-08-24T09:50:47;21.30;99.90
19892;DHT22;10108;50.142;8.724;2023-08-24T09:53:18;21.30;99.90
19892;DHT22;10108;50.142;8.724;2023-08-24T09:56:02;21.30;99.90
19892;DHT22;10108;50.142;8.724;2023-08-24T09:58:29;21.30;99.90
19892;DHT22;10108;50.142;8.724;2023-08-24T10:00:56;21.40;99.90
19892;DHT22;10108;50.142;8.724;2023-08-24T10:03:25;21.30;99.90
19892;DHT22;10108;50.142;8.724;2023-08-24T10:05:53;21.40;99.90
19892;DHT22;10108;50.142;8.724;2023-08-24T10:08:27;21.40;99.90
19892;DHT22;10108;50.142;8.724;2023-08-24T10:10:55;21.50;99.90
19892;DHT22;10108;50.142;8.724;2023-08-24T10:13:52;21.50;99.90
19892;DHT22;10108;50.142;8.724;2023-08-24T10:16:20;21.60;99.90
19892;DHT22;10108;50.142;8.724;2023-08-24T10:18:47;21.70;99.90
19892;DHT22;10108;50.142;8.724;2023-08-24T10:21:15;21.70;99.90
19892;DHT22;10108;50.142;8.724;2023-08-24T10:23:42;21.80;99.90
19892;DHT22;10108;50.142;8.724;2023-08-24T10:26:10;21.80;99.90
19892;DHT22;10108;50.142;8.724;2023-08-24T10:28:38;21.80;99.90
19892;DHT22;10108;50.142;8.724;2023-08-24T10:31:05;21.90;99.90
19892;DHT22;10108;50.142;8.724;2023-08-24T10:33:32;21.90;99.90
19892;DHT22;10108;50.142;8.724;2023-08-24T10:36:00;22.00;99.90
19892;DHT22;10108;50.142;8.724;2023-08-24T10:38:29;22.10;99.90
19892;DHT22;10108;50.142;8.724;2023-08-24T10:41:03;22.20;99.90
19892;DHT22;10108;50.142;8.724;2023-08-24T10:43:31;22.30;99.90
19892;DHT22;10108;50.142;8.724;2023-08-24T10:46:00;22.30;99.90
19892;DHT22;10108;50.142;8.724;2023-08-24T10:48:29;22.30;99.90
19892;DHT22;10108;50.142;8.724;2023-08-24T10:53:47;22.50;99.90
19892;DHT22;10108;50.142;8.724;2023-08-24T10:56:17;22.50;99.90
19892;DHT22;10108;50.142;8.724;2023-08-24T10:58:44;22.60;99.90
19892;DHT22;10108;50.142;8.724;2023-08-24T11:01:15;22.60;99.90
19892;DHT22;10108;50.142;8.724;2023-08-24T11:03:42;22.60;99.90
19892;DHT22;10108;50.142;8.724;2023-08-24T11:06:21;22.60;99.90
19892;DHT22;10108;50.142;8.724;2023-08-24T11:08:48;22.70;99.90
19892;DHT22;10108;50.142;8.724;2023-08-24T11:11:33;22.80;99.90
19892;DHT22;10108;50.142;8.724;2023-08-24T11:14:18;22.80;99.90
19892;DHT22;10108;50.142;8.724;2023-08-24T11:16:48;22.90;99.90
19892;DHT22;10108;50.142;8.724;2023-08-24T11:19:15;22.90;99.90
19892;DHT22;10108;50.142;8.724;2023-08-24T11:21:43;22.90;99.90
19892;DHT22;10108;50.142;8.724;2023-08-24T11:24:12;22.90;99.90
19892;DHT22;10108;50.142;8.724;2023-08-24T11:26:43;23.00;99.90
19892;DHT22;10108;50.142;8.724;2023-08-24T11:29:10;23.00;99.90
19892;DHT22;10108;50.142;8.724;2023-08-24T11:31:37;23.00;99.90
19892;DHT22;10108;50.142;8.724;2023-08-24T11:34:04;23.00;99.90
19892;DHT22;10108;50.142;8.724;2023-08-24T11:36:47;23.00;99.90
19892;DHT22;10108;50.142;8.724;2023-08-24T11:39:17;23.00;99.90
19892;DHT22;10108;50.142;8.724;2023-08-24T11:42:05;23.00;99.90
19892;DHT22;10108;50.142;8.724;2023-08-24T11:44:48;23.00;99.90
19892;DHT22;10108;50.142;8.724;2023-08-24T11:47:15;23.00;99.90
19892;DHT22;10108;50.142;8.724;2023-08-24T11:49:42;22.90;99.90
19892;DHT22;10108;50.142;8.724;2023-08-24T11:52:08;23.00;99.90
19892;DHT22;10108;50.142;8.724;2023-08-24T11:54:36;22.90;99.90
19892;DHT22;10108;50.142;8.724;2023-08-24T11:57:06;22.90;99.90
19892;DHT22;10108;50.142;8.724;2023-08-24T11:59:32;22.90;99.90
19892;DHT22;10108;50.142;8.724;2023-08-24T12:01:59;22.90;99.90
19892;DHT22;10108;50.142;8.724;2023-08-24T12:04:25;22.90;99.90
19892;DHT22;10108;50.142;8.724;2023-08-24T12:06:51;23.00;99.90
19892;DHT22;10108;50.142;8.724;2023-08-24T12:09:17;23.00;99.90
19892;DHT22;10108;50.142;8.724;2023-08-24T12:11:43;23.10;99.90
19892;DHT22;10108;50.142;8.724;2023-08-24T12:14:17;23.10;99.90
19892;DHT22;10108;50.142;8.724;2023-08-24T12:16:43;23.10;99.90
19892;DHT22;10108;50.142;8.724;2023-08-24T12:19:09;23.10;99.90
19892;DHT22;10108;50.142;8.724;2023-08-24T12:21:36;23.10;99.90
19892;DHT22;10108;50.142;8.724;2023-08-24T12:24:02;23.00;99.90
19892;DHT22;10108;50.142;8.724;2023-08-24T12:26:32;23.00;99.90
19892;DHT22;10108;50.142;8.724;2023-08-24T12:29:04;23.00;99.90
19892;DHT22;10108;50.142;8.724;2023-08-24T12:31:32;23.00;99.90
19892;DHT22;10108;50.142;8.724;2023-08-24T12:34:04;23.10;99.90
19892;DHT22;10108;50.142;8.724;2023-08-24T12:36:32;23.10;99.90
19892;DHT22;10108;50.142;8.724;2023-08-24T12:38:58;23.10;99.90
19892;DHT22;10108;50.142;8.724;2023-08-24T12:41:25;23.20;99.90
19892;DHT22;10108;50.142;8.724;2023-08-24T12:43:51;23.20;99.90
19892;DHT22;10108;50.142;8.724;2023-08-24T12:46:18;23.20;99.90
19892;DHT22;10108;50.142;8.724;2023-08-24T12:48:44;23.20;99.90
19892;DHT22;10108;50.142;8.724;2023-08-24T12:51:10;23.20;99.90
19892;DHT22;10108;50.142;8.724;2023-08-24T12:53:37;23.20;99.90
19892;DHT22;10108;50.142;8.724;2023-08-24T12:56:03;23.30;99.90
19892;DHT22;10108;50.142;8.724;2023-08-24T12:58:30;23.30;99.90
19892;DHT22;10108;50.142;8.724;2023-08-24T13:00:56;23.30;99.90
19892;DHT22;10108;50.142;8.724;2023-08-24T13:03:22;23.30;99.90
19892;DHT22;10108;50.142;8.724;2023-08-24T13:05:48;23.30;99.90
19892;DHT22;10108;50.142;8.724;2023-08-24T13:08:14;23.30;99.90
19892;DHT22;10108;50.142;8.724;2023-08-24T13:10:40;23.30;99.90
19892;DHT22;10108;50.142;8.724;2023-08-24T13:13:07;23.30;99.90
19892;DHT22;10108;50.142;8.724;2023-08-24T13:15:33;23.30;99.90
19892;DHT22;10108;50.142;8.724;2023-08-24T13:17:59;23.30;99.90
19892;DHT22;10108;50.142;8.724;2023-08-24T13:20:26;23.40;99.90
19892;DHT22;10108;50.142;8.724;2023-08-24T13:22:54;23.30;99.90
19892;DHT22;10108;50.142;8.724;2023-08-24T13:25:20;23.30;99.90
19892;DHT22;10108;50.142;8.724;2023-08-24T13:27:46;23.30;99.90
19892;DHT22;10108;50.142;8.724;2023-08-24T13:30:13;23.30;99.90
19892;DHT22;10108;50.142;8.724;2023-08-24T13:32:39;23.30;99.90
19892;DHT22;10108;50.142;8.724;2023-08-24T13:35:05;23.20;99.90
19892;DHT22;10108;50.142;8.724;2023-08-24T13:37:31;23.20;99.90
19892;DHT22;10108;50.142;8.724;2023-08-24T13:39:58;23.20;99.90
19892;DHT22;10108;50.142;8.724;2023-08-24T13:42:24;23.20;99.90
19892;DHT22;10108;50.142;8.724;2023-08-24T13:44:50;23.20;99.90
19892;DHT22;10108;50.142;8.724;2023-08-24T13:47:16;23.20;99.90
19892;DHT22;10108;50.142;8.724;2023-08-24T13:49:43;23.20;99.90
19892;DHT22;10108;50.142;8.724;2023-08-24T13:52:10;23.10;99.90
19892;DHT22;10108;50.142;8.724;2023-08-24T13:54:36;23.10;99.90
19892;DHT22;10108;50.142;8.724;2023-08-24T13:57:02;23.10;99.90
19892;DHT22;10108;50.142;8.724;2023-08-24T13:59:29;23.10;99.90
19892;DHT22;10108;50.142;8.724;2023-08-24T14:01:55;23.10;99.90
19892;DHT22;10108;50.142;8.724;2023-08-24T14:04:21;23.10;99.90
19892;DHT22;10108;50.142;8.724;2023-08-24T14:06:47;23.10;99.90
19892;DHT22;10108;50.142;8.724;2023-08-24T14:09:14;23.10;99.90
19892;DHT22;10108;50.142;8.724;2023-08-24T14:11:40;23.10;99.90
19892;DHT22;10108;50.142;8.724;2023-08-24T14:14:07;23.20;99.90
19892;DHT22;10108;50.142;8.724;2023-08-24T14:16:33;23.20;99.90
19892;DHT22;10108;50.142;8.724;2023-08-24T14:18:59;23.20;99.90
19892;DHT22;10108;50.142;8.724;2023-08-24T14:21:25;23.20;99.90
19892;DHT22;10108;50.142;8.724;2023-08-24T14:23:51;23.10;99.90
19892;DHT22;10108;50.142;8.724;2023-08-24T14:26:17;23.10;99.90
19892;DHT22;10108;50.142;8.724;2023-08-24T14:28:55;23.10;99.90
19892;DHT22;10108;50.142;8.724;2023-08-24T14:31:24;23.10;99.90
19892;DHT22;10108;50.142;8.724;2023-08-24T14:33:51;23.00;99.90
19892;DHT22;10108;50.142;8.724;2023-08-24T14:36:18;23.00;99.90
19892;DHT22;10108;50.142;8.724;2023-08-24T14:38:46;23.00;99.90
19892;DHT22;10108;50.142;8.724;2023-08-24T14:41:13;23.00;99.90
19892;DHT22;10108;50.142;8.724;2023-08-24T14:43:40;23.00;99.90
19892;DHT22;10108;50.142;8.724;2023-08-24T14:46:06;23.00;99.90
19892;DHT22;10108;50.142;8.724;2023-08-24T14:48:33;22.90;99.90
19892;DHT22;10108;50.142;8.724;2023-08-24T14:50:59;23.00;99.90
19892;DHT22;10108;50.142;8.724;2023-08-24T14:53:26;22.90;99.90
19892;DHT22;10108;50.142;8.724;2023-08-24T14:55:56;22.90;99.90
19892;DHT22;10108;50.142;8.724;2023-08-24T14:58:26;22.90;99.90
19892;DHT22;10108;50.142;8.724;2023-08-24T15:00:54;22.90;99.90
19892;DHT22;10108;50.142;8.724;2023-08-24T15:03:21;22.90;99.90
19892;DHT22;10108;50.142;8.724;2023-08-24T15:06:01;22.80;99.90
19892;DHT22;10108;50.142;8.724;2023-08-24T15:08:30;22.80;99.90
19892;DHT22;10108;50.142;8.724;2023-08-24T15:10:58;22.80;99.90
19892;DHT22;10108;50.142;8.724;2023-08-24T15:13:25;22.80;99.90
19892;DHT22;10108;50.142;8.724;2023-08-24T15:15:56;22.80;99.90
19892;DHT22;10108;50.142;8.724;2023-08-24T15:18:23;22.80;99.90
19892;DHT22;10108;50.142;8.724;2023-08-24T15:20:49;22.70;99.90
19892;DHT22;10108;50.142;8.724;2023-08-24T15:23:26;22.70;99.90
19892;DHT22;10108;50.142;8.724;2023-08-24T15:26:00;22.70;99.90
19892;DHT22;10108;50.142;8.724;2023-08-24T15:28:27;22.70;99.90
19892;DHT22;10108;50.142;8.724;2023-08-24T15:30:53;22.70;99.90
19892;DHT22;10108;50.142;8.724;2023-08-24T15:33:19;22.70;99.90
19892;DHT22;10108;50.142;8.724;2023-08-24T15:35:46;22.80;99.90
19892;DHT22;10108;50.142;8.724;2023-08-24T15:38:13;22.70;99.90
19892;DHT22;10108;50.142;8.724;2023-08-24T15:40:39;22.60;99.90
19892;DHT22;10108;50.142;8.724;2023-08-24T15:43:06;22.60;99.90